PWSweather.com
Personal Weather Stations
Station Observations
FAUSKE
Nordland, Norway, FauskeNO 8200

Nordland, NorwayFauskeNO 8200

Lat: 67.2607586, Lon: 15.4114204

Elevation: 40

Station Type: Davis Vantage PRO2

http://www.bjornli.net/weather.html

High Low Average
Temperature 58.3°F14.6°C 43.7°F6.5°C 51.8°F11.0°C
Dew Point 44.9°F7.2°C 41.6°F5.3°C 43.2°F6.2°C
Winds 14.0 mph 22.5 kmh Calm Calm 5.0 mph S8.0 kmh S
Wind Gusts 22.0 mph35.4 kmh -- 10.0 mph16.1 kmh
Humidity 94% 54% 73%
Pressure 29.64 in1003.7 mb 29.54 in1000.3 mb -
Precipitation 0.00 in0.0 mm - -
Hour Temp Dew Point Humidity Winds Wind Gusts Pressure Precip Precip Rate Daily Precip Total
12:00 AM 44.5°F6.9°C 42.6°F5.9°C 93% Calm Calm -- 29.64 in1003.7 mb 0.00 in0.0 mm 0.00 in0.0 mm 0.00 in0.0 mm
12:10 AM 44.4°F6.9°C 42.5°F5.8°C 93% Calm Calm -- 29.64 in1003.7 mb 0.00 in0.0 mm 0.00 in0.0 mm 0.00 in0.0 mm
12:30 AM 44.3°F6.8°C 42.4°F5.8°C 93% Calm Calm -- 29.63 in1003.4 mb 0.00 in0.0 mm 0.00 in0.0 mm 0.00 in0.0 mm
12:40 AM 44.2°F6.8°C 42.3°F5.7°C 93% Calm Calm -- 29.63 in1003.4 mb 0.00 in0.0 mm 0.00 in0.0 mm 0.00 in0.0 mm
01:00 AM 43.8°F6.6°C 42.2°F5.7°C 94% Calm Calm -- 29.63 in1003.4 mb 0.00 in0.0 mm 0.00 in0.0 mm 0.00 in0.0 mm
01:10 AM 43.7°F6.5°C 42.1°F5.6°C 94% Calm Calm -- 29.63 in1003.4 mb 0.00 in0.0 mm 0.00 in0.0 mm 0.00 in0.0 mm
01:30 AM 43.8°F6.6°C 42.2°F5.7°C 94% Calm Calm -- 29.63 in1003.4 mb 0.00 in0.0 mm 0.00 in0.0 mm 0.00 in0.0 mm
01:40 AM 44.2°F6.8°C 42.6°F5.9°C 94% Calm Calm -- 29.63 in1003.4 mb 0.00 in0.0 mm 0.00 in0.0 mm 0.00 in0.0 mm
02:00 AM 45.5°F7.5°C 43.6°F6.4°C 93% 3.0 mph ESE4.8 kmh ESE 3.0 mph4.8 kmh 29.62 in1003.0 mb 0.00 in0.0 mm 0.00 in0.0 mm 0.00 in0.0 mm
02:09 AM 45.7°F7.6°C 43.5°F6.4°C 92% Calm Calm 7.0 mph11.3 kmh 29.62 in1003.0 mb 0.00 in0.0 mm 0.00 in0.0 mm 0.00 in0.0 mm
02:30 AM 47.0°F8.3°C 43.9°F6.6°C 89% 2.0 mph SE3.2 kmh SE 5.0 mph8.0 kmh 29.62 in1003.0 mb 0.00 in0.0 mm 0.00 in0.0 mm 0.00 in0.0 mm
02:40 AM 47.3°F8.5°C 43.9°F6.6°C 88% 5.0 mph SE8.0 kmh SE 10.0 mph16.1 kmh 29.62 in1003.0 mb 0.00 in0.0 mm 0.00 in0.0 mm 0.00 in0.0 mm
03:00 AM 46.6°F8.1°C 42.3°F5.7°C 85% 2.0 mph SE3.2 kmh SE 2.0 mph3.2 kmh 29.62 in1003.0 mb 0.00 in0.0 mm 0.00 in0.0 mm 0.00 in0.0 mm
03:10 AM 45.6°F7.6°C 41.7°F5.4°C 86% Calm Calm 4.0 mph6.4 kmh 29.62 in1003.0 mb 0.00 in0.0 mm 0.00 in0.0 mm 0.00 in0.0 mm
03:30 AM 44.8°F7.1°C 41.8°F5.4°C 89% Calm Calm -- 29.61 in1002.7 mb 0.00 in0.0 mm 0.00 in0.0 mm 0.00 in0.0 mm
03:40 AM 44.8°F7.1°C 41.8°F5.4°C 89% Calm Calm -- 29.61 in1002.7 mb 0.00 in0.0 mm 0.00 in0.0 mm 0.00 in0.0 mm
04:00 AM 44.4°F6.9°C 41.7°F5.4°C 90% Calm Calm -- 29.60 in1002.4 mb 0.00 in0.0 mm 0.00 in0.0 mm 0.00 in0.0 mm
04:10 AM 44.5°F6.9°C 41.8°F5.4°C 90% Calm Calm 2.0 mph3.2 kmh 29.60 in1002.4 mb 0.00 in0.0 mm 0.00 in0.0 mm 0.00 in0.0 mm
04:30 AM 44.3°F6.8°C 41.6°F5.3°C 90% Calm Calm -- 29.59 in1002.0 mb 0.00 in0.0 mm 0.00 in0.0 mm 0.00 in0.0 mm
04:40 AM 44.8°F7.1°C 42.1°F5.6°C 90% Calm Calm 6.0 mph9.7 kmh 29.59 in1002.0 mb 0.00 in0.0 mm 0.00 in0.0 mm 0.00 in0.0 mm
05:00 AM 46.2°F7.9°C 42.9°F6.1°C 88% 2.0 mph SE3.2 kmh SE 6.0 mph9.7 kmh 29.59 in1002.0 mb 0.00 in0.0 mm 0.00 in0.0 mm 0.00 in0.0 mm
05:10 AM 46.5°F8.1°C 42.9°F6.1°C 87% 5.0 mph SE8.0 kmh SE 9.0 mph14.5 kmh 29.59 in1002.0 mb 0.00 in0.0 mm 0.00 in0.0 mm 0.00 in0.0 mm
05:30 AM 47.1°F8.4°C 42.8°F6.0°C 85% Calm Calm 1.0 mph1.6 kmh 29.59 in1002.0 mb 0.00 in0.0 mm 0.00 in0.0 mm 0.00 in0.0 mm
05:40 AM 47.3°F8.5°C 42.7°F5.9°C 84% 3.0 mph SE4.8 kmh SE 11.0 mph17.7 kmh 29.59 in1002.0 mb 0.00 in0.0 mm 0.00 in0.0 mm 0.00 in0.0 mm
06:00 AM 48.0°F8.9°C 43.4°F6.3°C 84% 9.0 mph SE14.5 kmh SE 10.0 mph16.1 kmh 29.58 in1001.7 mb 0.00 in0.0 mm 0.00 in0.0 mm 0.00 in0.0 mm
06:10 AM 48.5°F9.2°C 43.6°F6.4°C 83% 5.0 mph E8.0 kmh E 14.0 mph22.5 kmh 29.58 in1001.7 mb 0.00 in0.0 mm 0.00 in0.0 mm 0.00 in0.0 mm
06:30 AM 49.6°F9.8°C 43.4°F6.3°C 79% 2.0 mph S3.2 kmh S 3.0 mph4.8 kmh 29.58 in1001.7 mb 0.00 in0.0 mm 0.00 in0.0 mm 0.00 in0.0 mm
06:40 AM 50.5°F10.3°C 43.6°F6.4°C 77% 6.0 mph S9.7 kmh S 13.0 mph20.9 kmh 29.57 in1001.4 mb 0.00 in0.0 mm 0.00 in0.0 mm 0.00 in0.0 mm
07:00 AM 51.8°F11.0°C 43.4°F6.3°C 73% 10.0 mph S16.1 kmh S 13.0 mph20.9 kmh 29.58 in1001.7 mb 0.00 in0.0 mm 0.00 in0.0 mm 0.00 in0.0 mm
07:10 AM 52.3°F11.3°C 43.2°F6.2°C 71% 13.0 mph S20.9 kmh S 20.0 mph32.2 kmh 29.58 in1001.7 mb 0.00 in0.0 mm 0.00 in0.0 mm 0.00 in0.0 mm
07:30 AM 53.1°F11.7°C 43.2°F6.2°C 69% 7.0 mph SSW11.3 kmh SSW 9.0 mph14.5 kmh 29.58 in1001.7 mb 0.00 in0.0 mm 0.00 in0.0 mm 0.00 in0.0 mm
07:40 AM 53.1°F11.7°C 43.2°F6.2°C 69% 10.0 mph SE16.1 kmh SE 17.0 mph27.4 kmh 29.57 in1001.4 mb 0.00 in0.0 mm 0.00 in0.0 mm 0.00 in0.0 mm
08:00 AM 53.6°F12.0°C 42.5°F5.8°C 66% 13.0 mph S20.9 kmh S 13.0 mph20.9 kmh 29.58 in1001.7 mb 0.00 in0.0 mm 0.00 in0.0 mm 0.00 in0.0 mm
08:10 AM 54.3°F12.4°C 43.6°F6.4°C 67% 12.0 mph SE19.3 kmh SE 18.0 mph29.0 kmh 29.58 in1001.7 mb 0.00 in0.0 mm 0.00 in0.0 mm 0.00 in0.0 mm
08:30 AM 54.2°F12.3°C 43.5°F6.4°C 67% 9.0 mph S14.5 kmh S 9.0 mph14.5 kmh 29.58 in1001.7 mb 0.00 in0.0 mm 0.00 in0.0 mm 0.00 in0.0 mm
08:40 AM 54.4°F12.4°C 42.1°F5.6°C 63% 6.0 mph S9.7 kmh S 14.0 mph22.5 kmh 29.58 in1001.7 mb 0.00 in0.0 mm 0.00 in0.0 mm 0.00 in0.0 mm
09:00 AM 54.8°F12.7°C 42.5°F5.8°C 63% 7.0 mph SSE11.3 kmh SSE 8.0 mph12.9 kmh 29.57 in1001.4 mb 0.00 in0.0 mm 0.00 in0.0 mm 0.00 in0.0 mm
09:10 AM 55.0°F12.8°C 41.8°F5.4°C 61% 7.0 mph S11.3 kmh S 15.0 mph24.1 kmh 29.58 in1001.7 mb 0.00 in0.0 mm 0.00 in0.0 mm 0.00 in0.0 mm
09:30 AM 55.3°F12.9°C 42.1°F5.6°C 61% 5.0 mph S8.0 kmh S 5.0 mph8.0 kmh 29.57 in1001.4 mb 0.00 in0.0 mm 0.00 in0.0 mm 0.00 in0.0 mm
09:40 AM 55.2°F12.9°C 42.4°F5.8°C 62% 11.0 mph SW17.7 kmh SW 15.0 mph24.1 kmh 29.57 in1001.4 mb 0.00 in0.0 mm 0.00 in0.0 mm 0.00 in0.0 mm
10:00 AM 55.2°F12.9°C 42.4°F5.8°C 62% 8.0 mph SSE12.9 kmh SSE 8.0 mph12.9 kmh 29.57 in1001.4 mb 0.00 in0.0 mm 0.00 in0.0 mm 0.00 in0.0 mm
10:10 AM 55.3°F12.9°C 42.9°F6.1°C 63% 10.0 mph S16.1 kmh S 16.0 mph25.7 kmh 29.57 in1001.4 mb 0.00 in0.0 mm 0.00 in0.0 mm 0.00 in0.0 mm
10:30 AM 55.8°F13.2°C 43.4°F6.3°C 63% 6.0 mph S9.7 kmh S 10.0 mph16.1 kmh 29.57 in1001.4 mb 0.00 in0.0 mm 0.00 in0.0 mm 0.00 in0.0 mm
10:40 AM 55.7°F13.2°C 43.7°F6.5°C 64% 3.0 mph S4.8 kmh S 11.0 mph17.7 kmh 29.57 in1001.4 mb 0.00 in0.0 mm 0.00 in0.0 mm 0.00 in0.0 mm
11:00 AM 55.7°F13.2°C 42.5°F5.8°C 61% 9.0 mph S14.5 kmh S 9.0 mph14.5 kmh 29.57 in1001.4 mb 0.00 in0.0 mm 0.00 in0.0 mm 0.00 in0.0 mm
11:10 AM 55.5°F13.1°C 43.1°F6.2°C 63% Calm Calm 12.0 mph19.3 kmh 29.57 in1001.4 mb 0.00 in0.0 mm 0.00 in0.0 mm 0.00 in0.0 mm
11:30 AM 55.8°F13.2°C 43.0°F6.1°C 62% 4.0 mph SSW6.4 kmh SSW 4.0 mph6.4 kmh 29.56 in1001.0 mb 0.00 in0.0 mm 0.00 in0.0 mm 0.00 in0.0 mm
11:40 AM 56.1°F13.4°C 43.3°F6.3°C 62% 3.0 mph S4.8 kmh S 18.0 mph29.0 kmh 29.56 in1001.0 mb 0.00 in0.0 mm 0.00 in0.0 mm 0.00 in0.0 mm
12:00 PM 56.1°F13.4°C 43.3°F6.3°C 62% 11.0 mph SW17.7 kmh SW 11.0 mph17.7 kmh 29.56 in1001.0 mb 0.00 in0.0 mm 0.00 in0.0 mm 0.00 in0.0 mm
12:10 PM 56.2°F13.4°C 43.8°F6.6°C 63% 5.0 mph S8.0 kmh S 12.0 mph19.3 kmh 29.56 in1001.0 mb 0.00 in0.0 mm 0.00 in0.0 mm 0.00 in0.0 mm
12:30 PM 56.2°F13.4°C 42.1°F5.6°C 59% 13.0 mph SW20.9 kmh SW 15.0 mph24.1 kmh 29.56 in1001.0 mb 0.00 in0.0 mm 0.00 in0.0 mm 0.00 in0.0 mm
12:40 PM 56.5°F13.6°C 44.5°F6.9°C 64% 5.0 mph SSW8.0 kmh SSW 16.0 mph25.7 kmh 29.55 in1000.7 mb 0.00 in0.0 mm 0.00 in0.0 mm 0.00 in0.0 mm
01:00 PM 56.6°F13.7°C 43.8°F6.6°C 62% 9.0 mph SW14.5 kmh SW 9.0 mph14.5 kmh 29.55 in1000.7 mb 0.00 in0.0 mm 0.00 in0.0 mm 0.00 in0.0 mm
01:10 PM 56.8°F13.8°C 44.4°F6.9°C 63% 2.0 mph S3.2 kmh S 13.0 mph20.9 kmh 29.54 in1000.3 mb 0.00 in0.0 mm 0.00 in0.0 mm 0.00 in0.0 mm
01:30 PM 57.6°F14.2°C 43.8°F6.6°C 60% 6.0 mph SSW9.7 kmh SSW 15.0 mph24.1 kmh 29.55 in1000.7 mb 0.00 in0.0 mm 0.00 in0.0 mm 0.00 in0.0 mm
01:39 PM 58.1°F14.5°C 42.5°F5.8°C 56% 12.0 mph SW19.3 kmh SW 19.0 mph30.6 kmh 29.55 in1000.7 mb 0.00 in0.0 mm 0.00 in0.0 mm 0.00 in0.0 mm
02:00 PM 58.3°F14.6°C 41.8°F5.4°C 54% 11.0 mph SSW17.7 kmh SSW 13.0 mph20.9 kmh 29.55 in1000.7 mb 0.00 in0.0 mm 0.00 in0.0 mm 0.00 in0.0 mm
02:10 PM 58.1°F14.5°C 43.0°F6.1°C 57% 10.0 mph SSW16.1 kmh SSW 18.0 mph29.0 kmh 29.55 in1000.7 mb 0.00 in0.0 mm 0.00 in0.0 mm 0.00 in0.0 mm
02:30 PM 57.1°F13.9°C 44.2°F6.8°C 62% 4.0 mph WSW6.4 kmh WSW 6.0 mph9.7 kmh 29.55 in1000.7 mb 0.00 in0.0 mm 0.00 in0.0 mm 0.00 in0.0 mm
02:40 PM 55.9°F13.3°C 43.9°F6.6°C 64% 4.0 mph W6.4 kmh W 10.0 mph16.1 kmh 29.55 in1000.7 mb 0.00 in0.0 mm 0.00 in0.0 mm 0.00 in0.0 mm
03:00 PM 55.4°F13.0°C 44.6°F7.0°C 67% Calm Calm 4.0 mph6.4 kmh 29.55 in1000.7 mb 0.00 in0.0 mm 0.00 in0.0 mm 0.00 in0.0 mm
03:10 PM 55.2°F12.9°C 43.7°F6.5°C 65% 4.0 mph WSW6.4 kmh WSW 10.0 mph16.1 kmh 29.55 in1000.7 mb 0.00 in0.0 mm 0.00 in0.0 mm 0.00 in0.0 mm
03:30 PM 54.7°F12.6°C 44.7°F7.1°C 69% 3.0 mph SW4.8 kmh SW 3.0 mph4.8 kmh 29.56 in1001.0 mb 0.00 in0.0 mm 0.00 in0.0 mm 0.00 in0.0 mm
03:40 PM 54.0°F12.2°C 44.5°F6.9°C 70% 5.0 mph WSW8.0 kmh WSW 11.0 mph17.7 kmh 29.56 in1001.0 mb 0.00 in0.0 mm 0.00 in0.0 mm 0.00 in0.0 mm
04:00 PM 53.7°F12.1°C 44.2°F6.8°C 70% 3.0 mph SW4.8 kmh SW 4.0 mph6.4 kmh 29.56 in1001.0 mb 0.00 in0.0 mm 0.00 in0.0 mm 0.00 in0.0 mm
04:10 PM 53.6°F12.0°C 44.4°F6.9°C 71% 2.0 mph WSW3.2 kmh WSW 10.0 mph16.1 kmh 29.57 in1001.4 mb 0.00 in0.0 mm 0.00 in0.0 mm 0.00 in0.0 mm
04:30 PM 54.0°F12.2°C 44.8°F7.1°C 71% 3.0 mph SSW4.8 kmh SSW 6.0 mph9.7 kmh 29.57 in1001.4 mb 0.00 in0.0 mm 0.00 in0.0 mm 0.00 in0.0 mm
04:40 PM 54.1°F12.3°C 44.9°F7.2°C 71% 12.0 mph SW19.3 kmh SW 14.0 mph22.5 kmh 29.58 in1001.7 mb 0.00 in0.0 mm 0.00 in0.0 mm 0.00 in0.0 mm
05:00 PM 54.3°F12.4°C 44.4°F6.9°C 69% 6.0 mph SSW9.7 kmh SSW 10.0 mph16.1 kmh 29.57 in1001.4 mb 0.00 in0.0 mm 0.00 in0.0 mm 0.00 in0.0 mm
05:10 PM 54.1°F12.3°C 44.2°F6.8°C 69% 3.0 mph SW4.8 kmh SW 14.0 mph22.5 kmh 29.57 in1001.4 mb 0.00 in0.0 mm 0.00 in0.0 mm 0.00 in0.0 mm
05:30 PM 54.0°F12.2°C 44.1°F6.7°C 69% Calm Calm 10.0 mph16.1 kmh 29.58 in1001.7 mb 0.00 in0.0 mm 0.00 in0.0 mm 0.00 in0.0 mm
05:39 PM 53.9°F12.2°C 44.4°F6.9°C 70% 7.0 mph S11.3 kmh S 16.0 mph25.7 kmh 29.58 in1001.7 mb 0.00 in0.0 mm 0.00 in0.0 mm 0.00 in0.0 mm
06:00 PM 53.8°F12.1°C 43.5°F6.4°C 68% 13.0 mph SSW20.9 kmh SSW 13.0 mph20.9 kmh 29.58 in1001.7 mb 0.00 in0.0 mm 0.00 in0.0 mm 0.00 in0.0 mm
06:10 PM 53.8°F12.1°C 43.5°F6.4°C 68% 8.0 mph SW12.9 kmh SW 14.0 mph22.5 kmh 29.58 in1001.7 mb 0.00 in0.0 mm 0.00 in0.0 mm 0.00 in0.0 mm
06:30 PM 53.3°F11.8°C 44.2°F6.8°C 71% 4.0 mph SSW6.4 kmh SSW 4.0 mph6.4 kmh 29.57 in1001.4 mb 0.00 in0.0 mm 0.00 in0.0 mm 0.00 in0.0 mm
06:40 PM 53.2°F11.8°C 44.4°F6.9°C 72% 6.0 mph SSW9.7 kmh SSW 14.0 mph22.5 kmh 29.57 in1001.4 mb 0.00 in0.0 mm 0.00 in0.0 mm 0.00 in0.0 mm
07:00 PM 53.0°F11.7°C 44.6°F7.0°C 73% 5.0 mph S8.0 kmh S 5.0 mph8.0 kmh 29.57 in1001.4 mb 0.00 in0.0 mm 0.00 in0.0 mm 0.00 in0.0 mm
07:10 PM 53.0°F11.7°C 44.6°F7.0°C 73% 4.0 mph S6.4 kmh S 13.0 mph20.9 kmh 29.57 in1001.4 mb 0.00 in0.0 mm 0.00 in0.0 mm 0.00 in0.0 mm
07:30 PM 52.9°F11.6°C 43.8°F6.6°C 71% 14.0 mph S22.5 kmh S 14.0 mph22.5 kmh 29.58 in1001.7 mb 0.00 in0.0 mm 0.00 in0.0 mm 0.00 in0.0 mm
07:40 PM 53.1°F11.7°C 44.0°F6.7°C 71% 3.0 mph SSE4.8 kmh SSE 14.0 mph22.5 kmh 29.58 in1001.7 mb 0.00 in0.0 mm 0.00 in0.0 mm 0.00 in0.0 mm
08:00 PM 53.1°F11.7°C 44.0°F6.7°C 71% 6.0 mph S9.7 kmh S 7.0 mph11.3 kmh 29.58 in1001.7 mb 0.00 in0.0 mm 0.00 in0.0 mm 0.00 in0.0 mm
08:10 PM 53.0°F11.7°C 43.5°F6.4°C 70% 11.0 mph S17.7 kmh S 18.0 mph29.0 kmh 29.58 in1001.7 mb 0.00 in0.0 mm 0.00 in0.0 mm 0.00 in0.0 mm
08:30 PM 52.8°F11.6°C 43.7°F6.5°C 71% 13.0 mph S20.9 kmh S 18.0 mph29.0 kmh 29.58 in1001.7 mb 0.00 in0.0 mm 0.00 in0.0 mm 0.00 in0.0 mm
08:40 PM 52.6°F11.4°C 43.5°F6.4°C 71% 11.0 mph S17.7 kmh S 15.0 mph24.1 kmh 29.58 in1001.7 mb 0.00 in0.0 mm 0.00 in0.0 mm 0.00 in0.0 mm
09:00 PM 52.7°F11.5°C 42.8°F6.0°C 69% 7.0 mph S11.3 kmh S 17.0 mph27.4 kmh 29.57 in1001.4 mb 0.00 in0.0 mm 0.00 in0.0 mm 0.00 in0.0 mm
09:10 PM 52.5°F11.4°C 43.4°F6.3°C 71% 10.0 mph S16.1 kmh S 17.0 mph27.4 kmh 29.57 in1001.4 mb 0.00 in0.0 mm 0.00 in0.0 mm 0.00 in0.0 mm
09:30 PM 52.3°F11.3°C 42.8°F6.0°C 70% 9.0 mph SSE14.5 kmh SSE 10.0 mph16.1 kmh 29.57 in1001.4 mb 0.00 in0.0 mm 0.00 in0.0 mm 0.00 in0.0 mm
09:40 PM 52.4°F11.3°C 43.3°F6.3°C 71% 5.0 mph S8.0 kmh S 17.0 mph27.4 kmh 29.57 in1001.4 mb 0.00 in0.0 mm 0.00 in0.0 mm 0.00 in0.0 mm
10:00 PM 52.3°F11.3°C 43.2°F6.2°C 71% 9.0 mph SSE14.5 kmh SSE 12.0 mph19.3 kmh 29.56 in1001.0 mb 0.00 in0.0 mm 0.00 in0.0 mm 0.00 in0.0 mm
10:09 PM 52.2°F11.2°C 42.7°F5.9°C 70% 11.0 mph S17.7 kmh S 15.0 mph24.1 kmh 29.56 in1001.0 mb 0.00 in0.0 mm 0.00 in0.0 mm 0.00 in0.0 mm
10:30 PM 52.0°F11.1°C 42.9°F6.1°C 71% 9.0 mph S14.5 kmh S 9.0 mph14.5 kmh 29.56 in1001.0 mb 0.00 in0.0 mm 0.00 in0.0 mm 0.00 in0.0 mm
10:40 PM 52.0°F11.1°C 42.5°F5.8°C 70% 3.0 mph S4.8 kmh S 18.0 mph29.0 kmh 29.56 in1001.0 mb 0.00 in0.0 mm 0.00 in0.0 mm 0.00 in0.0 mm
11:00 PM 52.0°F11.1°C 42.5°F5.8°C 70% 10.0 mph S16.1 kmh S 10.0 mph16.1 kmh 29.56 in1001.0 mb 0.00 in0.0 mm 0.00 in0.0 mm 0.00 in0.0 mm
11:10 PM 52.0°F11.1°C 42.9°F6.1°C 71% 6.0 mph S9.7 kmh S 22.0 mph35.4 kmh 29.56 in1001.0 mb 0.00 in0.0 mm 0.00 in0.0 mm 0.00 in0.0 mm
11:30 PM 52.0°F11.1°C 42.9°F6.1°C 71% 4.0 mph S6.4 kmh S 22.0 mph35.4 kmh 29.56 in1001.0 mb 0.00 in0.0 mm 0.00 in0.0 mm 0.00 in0.0 mm
11:40 PM 51.8°F11.0°C 42.7°F5.9°C 71% 4.0 mph S6.4 kmh S 16.0 mph25.7 kmh 29.56 in1001.0 mb 0.00 in0.0 mm 0.00 in0.0 mm 0.00 in0.0 mm